sensor_id;sensor_type;location;lat;lon;timestamp;temperature;humidity
28763;DHT22;15918;51.270;6.522;2022-11-20T00:00:51;9.20;58.90
28763;DHT22;15918;51.270;6.522;2022-11-20T00:03:16;9.20;58.90
28763;DHT22;15918;51.270;6.522;2022-11-20T00:05:43;9.20;58.80
28763;DHT22;15918;51.270;6.522;2022-11-20T00:08:09;9.20;58.80
28763;DHT22;15918;51.270;6.522;2022-11-20T00:10:41;9.10;58.80
28763;DHT22;15918;51.270;6.522;2022-11-20T00:13:07;9.20;58.90
28763;DHT22;15918;51.270;6.522;2022-11-20T00:15:33;9.20;59.00
28763;DHT22;15918;51.270;6.522;2022-11-20T00:17:59;9.20;59.00
28763;DHT22;15918;51.270;6.522;2022-11-20T00:20:25;9.20;59.10
28763;DHT22;15918;51.270;6.522;2022-11-20T00:22:50;9.20;59.10
28763;DHT22;15918;51.270;6.522;2022-11-20T00:25:16;9.20;59.20
28763;DHT22;15918;51.270;6.522;2022-11-20T00:27:42;9.20;59.20
28763;DHT22;15918;51.270;6.522;2022-11-20T00:30:08;9.20;59.20
28763;DHT22;15918;51.270;6.522;2022-11-20T00:32:34;9.20;59.30
28763;DHT22;15918;51.270;6.522;2022-11-20T00:34:59;9.20;59.30
28763;DHT22;15918;51.270;6.522;2022-11-20T00:37:25;9.20;59.30
28763;DHT22;15918;51.270;6.522;2022-11-20T00:39:51;9.10;59.20
28763;DHT22;15918;51.270;6.522;2022-11-20T00:42:16;9.20;59.30
28763;DHT22;15918;51.270;6.522;2022-11-20T00:44:42;9.20;59.30
28763;DHT22;15918;51.270;6.522;2022-11-20T00:47:07;9.20;59.30
28763;DHT22;15918;51.270;6.522;2022-11-20T00:49:33;9.20;59.30
28763;DHT22;15918;51.270;6.522;2022-11-20T00:51:58;9.20;59.40
28763;DHT22;15918;51.270;6.522;2022-11-20T00:54:24;9.20;59.40
28763;DHT22;15918;51.270;6.522;2022-11-20T00:56:52;9.20;59.40
28763;DHT22;15918;51.270;6.522;2022-11-20T00:59:17;9.20;59.40
28763;DHT22;15918;51.270;6.522;2022-11-20T01:01:43;9.20;59.40
28763;DHT22;15918;51.270;6.522;2022-11-20T01:04:08;9.20;59.40
28763;DHT22;15918;51.270;6.522;2022-11-20T01:06:36;9.20;59.50
28763;DHT22;15918;51.270;6.522;2022-11-20T01:09:06;9.20;59.40
28763;DHT22;15918;51.270;6.522;2022-11-20T01:11:34;9.20;59.40
28763;DHT22;15918;51.270;6.522;2022-11-20T01:14:01;9.20;59.40
28763;DHT22;15918;51.270;6.522;2022-11-20T01:16:30;9.10;59.30
28763;DHT22;15918;51.270;6.522;2022-11-20T01:18:59;9.20;59.30
28763;DHT22;15918;51.270;6.522;2022-11-20T01:21:30;9.10;59.30
28763;DHT22;15918;51.270;6.522;2022-11-20T01:23:57;9.20;59.20
28763;DHT22;15918;51.270;6.522;2022-11-20T01:26:25;9.10;59.20
28763;DHT22;15918;51.270;6.522;2022-11-20T01:28:51;9.20;59.30
28763;DHT22;15918;51.270;6.522;2022-11-20T01:33:48;9.10;59.20
28763;DHT22;15918;51.270;6.522;2022-11-20T01:36:15;9.10;59.20
28763;DHT22;15918;51.270;6.522;2022-11-20T01:38:41;9.10;59.20
28763;DHT22;15918;51.270;6.522;2022-11-20T01:41:07;9.20;59.20
28763;DHT22;15918;51.270;6.522;2022-11-20T01:43:33;9.10;59.10
28763;DHT22;15918;51.270;6.522;2022-11-20T01:46:17;9.10;59.10
28763;DHT22;15918;51.270;6.522;2022-11-20T01:49:08;9.10;59.10
28763;DHT22;15918;51.270;6.522;2022-11-20T01:51:42;9.10;59.10
28763;DHT22;15918;51.270;6.522;2022-11-20T01:54:20;9.10;59.20
28763;DHT22;15918;51.270;6.522;2022-11-20T01:56:48;9.10;59.00
28763;DHT22;15918;51.270;6.522;2022-11-20T01:59:18;9.00;58.90
28763;DHT22;15918;51.270;6.522;2022-11-20T02:01:44;9.00;59.00
28763;DHT22;15918;51.270;6.522;2022-11-20T02:04:11;9.00;59.00
28763;DHT22;15918;51.270;6.522;2022-11-20T02:06:42;9.00;59.10
28763;DHT22;15918;51.270;6.522;2022-11-20T02:09:09;9.00;59.10
28763;DHT22;15918;51.270;6.522;2022-11-20T02:11:35;9.00;59.10
28763;DHT22;15918;51.270;6.522;2022-11-20T02:14:01;9.00;59.10
28763;DHT22;15918;51.270;6.522;2022-11-20T02:16:47;9.00;59.20
28763;DHT22;15918;51.270;6.522;2022-11-20T02:24:36;8.90;59.40
28763;DHT22;15918;51.270;6.522;2022-11-20T02:27:10;8.90;59.40
28763;DHT22;15918;51.270;6.522;2022-11-20T02:29:52;9.00;59.30
28763;DHT22;15918;51.270;6.522;2022-11-20T02:32:23;9.00;59.20
28763;DHT22;15918;51.270;6.522;2022-11-20T02:34:49;8.90;59.10
28763;DHT22;15918;51.270;6.522;2022-11-20T02:37:15;9.00;59.10
28763;DHT22;15918;51.270;6.522;2022-11-20T02:39:42;8.90;59.00
28763;DHT22;15918;51.270;6.522;2022-11-20T02:42:08;9.00;59.00
28763;DHT22;15918;51.270;6.522;2022-11-20T02:44:34;8.90;58.90
28763;DHT22;15918;51.270;6.522;2022-11-20T02:46:59;8.90;58.90
28763;DHT22;15918;51.270;6.522;2022-11-20T02:49:25;8.90;58.80
28763;DHT22;15918;51.270;6.522;2022-11-20T02:51:51;8.90;58.80
28763;DHT22;15918;51.270;6.522;2022-11-20T02:54:16;8.90;58.80
28763;DHT22;15918;51.270;6.522;2022-11-20T02:56:42;8.90;58.70
28763;DHT22;15918;51.270;6.522;2022-11-20T02:59:08;8.80;58.70
28763;DHT22;15918;51.270;6.522;2022-11-20T03:01:34;8.80;58.60
28763;DHT22;15918;51.270;6.522;2022-11-20T03:04:00;8.80;58.60
28763;DHT22;15918;51.270;6.522;2022-11-20T03:06:25;8.80;58.60
28763;DHT22;15918;51.270;6.522;2022-11-20T03:08:51;8.80;58.60
28763;DHT22;15918;51.270;6.522;2022-11-20T03:11:16;8.80;58.50
28763;DHT22;15918;51.270;6.522;2022-11-20T03:13:42;8.70;58.40
28763;DHT22;15918;51.270;6.522;2022-11-20T03:16:21;8.70;58.40
28763;DHT22;15918;51.270;6.522;2022-11-20T03:18:46;8.70;58.40
28763;DHT22;15918;51.270;6.522;2022-11-20T03:21:13;8.70;58.40
28763;DHT22;15918;51.270;6.522;2022-11-20T03:23:39;8.70;58.40
28763;DHT22;15918;51.270;6.522;2022-11-20T03:26:19;8.70;58.40
28763;DHT22;15918;51.270;6.522;2022-11-20T03:28:50;8.70;58.30
28763;DHT22;15918;51.270;6.522;2022-11-20T03:31:17;8.70;58.40
28763;DHT22;15918;51.270;6.522;2022-11-20T03:33:44;8.60;58.40
28763;DHT22;15918;51.270;6.522;2022-11-20T03:36:12;8.60;58.50
28763;DHT22;15918;51.270;6.522;2022-11-20T03:38:38;8.60;58.50
28763;DHT22;15918;51.270;6.522;2022-11-20T03:41:06;8.60;58.50
28763;DHT22;15918;51.270;6.522;2022-11-20T03:43:33;8.60;58.60
28763;DHT22;15918;51.270;6.522;2022-11-20T03:45:58;8.60;58.60
28763;DHT22;15918;51.270;6.522;2022-11-20T03:48:24;8.60;58.70
28763;DHT22;15918;51.270;6.522;2022-11-20T03:50:51;8.60;58.80
28763;DHT22;15918;51.270;6.522;2022-11-20T03:53:17;8.60;58.80
28763;DHT22;15918;51.270;6.522;2022-11-20T03:55:43;8.60;58.90
28763;DHT22;15918;51.270;6.522;2022-11-20T03:58:09;8.60;59.00
28763;DHT22;15918;51.270;6.522;2022-11-20T04:00:35;8.60;59.00
28763;DHT22;15918;51.270;6.522;2022-11-20T04:03:03;8.60;59.00
28763;DHT22;15918;51.270;6.522;2022-11-20T04:05:28;8.60;59.10
28763;DHT22;15918;51.270;6.522;2022-11-20T04:07:54;8.50;59.10
28763;DHT22;15918;51.270;6.522;2022-11-20T04:10:20;8.50;59.20
28763;DHT22;15918;51.270;6.522;2022-11-20T04:12:45;8.50;59.20
28763;DHT22;15918;51.270;6.522;2022-11-20T04:15:11;8.50;59.20
28763;DHT22;15918;51.270;6.522;2022-11-20T04:17:37;8.50;59.30
28763;DHT22;15918;51.270;6.522;2022-11-20T04:20:03;8.50;59.40
28763;DHT22;15918;51.270;6.522;2022-11-20T04:22:28;8.50;59.40
28763;DHT22;15918;51.270;6.522;2022-11-20T04:24:54;8.50;59.40
28763;DHT22;15918;51.270;6.522;2022-11-20T04:27:20;8.50;59.40
28763;DHT22;15918;51.270;6.522;2022-11-20T04:29:45;8.50;59.40
28763;DHT22;15918;51.270;6.522;2022-11-20T04:32:11;8.50;59.40
28763;DHT22;15918;51.270;6.522;2022-11-20T04:34:37;8.50;59.40
28763;DHT22;15918;51.270;6.522;2022-11-20T04:37:02;8.50;59.40
28763;DHT22;15918;51.270;6.522;2022-11-20T04:39:28;8.50;59.40
28763;DHT22;15918;51.270;6.522;2022-11-20T04:41:53;8.50;59.50
28763;DHT22;15918;51.270;6.522;2022-11-20T04:44:39;8.50;59.50
28763;DHT22;15918;51.270;6.522;2022-11-20T04:47:05;8.50;59.60
28763;DHT22;15918;51.270;6.522;2022-11-20T04:49:31;8.50;59.50
28763;DHT22;15918;51.270;6.522;2022-11-20T04:51:57;8.50;59.50
28763;DHT22;15918;51.270;6.522;2022-11-20T04:54:23;8.50;59.50
28763;DHT22;15918;51.270;6.522;2022-11-20T04:56:48;8.50;59.50
28763;DHT22;15918;51.270;6.522;2022-11-20T04:59:14;8.50;59.60
28763;DHT22;15918;51.270;6.522;2022-11-20T05:01:40;8.50;59.50
28763;DHT22;15918;51.270;6.522;2022-11-20T05:04:05;8.50;59.60
28763;DHT22;15918;51.270;6.522;2022-11-20T05:06:31;8.50;59.50
28763;DHT22;15918;51.270;6.522;2022-11-20T05:08:57;8.50;59.60
28763;DHT22;15918;51.270;6.522;2022-11-20T05:11:23;8.40;59.50
28763;DHT22;15918;51.270;6.522;2022-11-20T05:13:50;8.50;59.60
28763;DHT22;15918;51.270;6.522;2022-11-20T05:16:18;8.40;59.60
28763;DHT22;15918;51.270;6.522;2022-11-20T05:18:44;8.40;59.60
28763;DHT22;15918;51.270;6.522;2022-11-20T05:21:11;8.50;59.70
28763;DHT22;15918;51.270;6.522;2022-11-20T05:23:38;8.40;59.60
28763;DHT22;15918;51.270;6.522;2022-11-20T05:26:05;8.40;59.70
28763;DHT22;15918;51.270;6.522;2022-11-20T05:28:31;8.40;59.70
28763;DHT22;15918;51.270;6.522;2022-11-20T05:31:11;8.40;59.80
28763;DHT22;15918;51.270;6.522;2022-11-20T05:33:39;8.50;59.90
28763;DHT22;15918;51.270;6.522;2022-11-20T05:36:05;8.40;59.90
28763;DHT22;15918;51.270;6.522;2022-11-20T05:38:31;8.40;60.00
28763;DHT22;15918;51.270;6.522;2022-11-20T05:41:14;8.40;60.00
28763;DHT22;15918;51.270;6.522;2022-11-20T05:43:43;8.40;59.90
28763;DHT22;15918;51.270;6.522;2022-11-20T05:46:11;8.40;60.00
28763;DHT22;15918;51.270;6.522;2022-11-20T05:48:38;8.40;60.10
28763;DHT22;15918;51.270;6.522;2022-11-20T05:51:07;8.40;60.20
28763;DHT22;15918;51.270;6.522;2022-11-20T05:53:34;8.40;60.20
28763;DHT22;15918;51.270;6.522;2022-11-20T05:56:15;8.40;60.20
28763;DHT22;15918;51.270;6.522;2022-11-20T05:58:41;8.40;60.20
28763;DHT22;15918;51.270;6.522;2022-11-20T06:01:11;8.40;60.20
28763;DHT22;15918;51.270;6.522;2022-11-20T06:03:37;8.40;60.20
28763;DHT22;15918;51.270;6.522;2022-11-20T06:06:04;8.40;60.20
28763;DHT22;15918;51.270;6.522;2022-11-20T06:08:30;8.40;60.20
28763;DHT22;15918;51.270;6.522;2022-11-20T06:10:56;8.40;61.10
28763;DHT22;15918;51.270;6.522;2022-11-20T06:13:22;8.40;60.40
28763;DHT22;15918;51.270;6.522;2022-11-20T06:15:52;8.40;60.40
28763;DHT22;15918;51.270;6.522;2022-11-20T06:18:18;8.40;60.40
28763;DHT22;15918;51.270;6.522;2022-11-20T06:20:44;8.40;60.40
28763;DHT22;15918;51.270;6.522;2022-11-20T06:23:10;8.40;60.40
28763;DHT22;15918;51.270;6.522;2022-11-20T06:25:39;8.40;61.10
28763;DHT22;15918;51.270;6.522;2022-11-20T06:28:06;8.40;60.40
28763;DHT22;15918;51.270;6.522;2022-11-20T06:30:31;8.40;60.30
28763;DHT22;15918;51.270;6.522;2022-11-20T06:32:57;8.40;60.20
28763;DHT22;15918;51.270;6.522;2022-11-20T06:35:22;8.40;60.20
28763;DHT22;15918;51.270;6.522;2022-11-20T06:37:48;8.40;60.20
28763;DHT22;15918;51.270;6.522;2022-11-20T06:40:14;8.40;60.30
28763;DHT22;15918;51.270;6.522;2022-11-20T06:42:39;8.40;60.40
28763;DHT22;15918;51.270;6.522;2022-11-20T06:45:05;8.40;60.60
28763;DHT22;15918;51.270;6.522;2022-11-20T06:47:31;8.40;60.60
28763;DHT22;15918;51.270;6.522;2022-11-20T06:49:56;8.40;60.60
28763;DHT22;15918;51.270;6.522;2022-11-20T06:52:22;8.40;61.40
28763;DHT22;15918;51.270;6.522;2022-11-20T06:54:47;8.40;60.60
28763;DHT22;15918;51.270;6.522;2022-11-20T06:57:13;8.40;60.70
28763;DHT22;15918;51.270;6.522;2022-11-20T06:59:38;8.40;60.80
28763;DHT22;15918;51.270;6.522;2022-11-20T07:02:04;8.40;60.80
28763;DHT22;15918;51.270;6.522;2022-11-20T07:04:30;8.40;60.90
28763;DHT22;15918;51.270;6.522;2022-11-20T07:06:55;8.40;61.00
28763;DHT22;15918;51.270;6.522;2022-11-20T07:09:21;8.30;61.00
28763;DHT22;15918;51.270;6.522;2022-11-20T07:11:46;8.40;61.00
28763;DHT22;15918;51.270;6.522;2022-11-20T07:14:12;8.40;61.10
28763;DHT22;15918;51.270;6.522;2022-11-20T07:16:37;8.40;61.10
28763;DHT22;15918;51.270;6.522;2022-11-20T07:19:03;8.40;61.20
28763;DHT22;15918;51.270;6.522;2022-11-20T07:21:28;8.40;61.40
28763;DHT22;15918;51.270;6.522;2022-11-20T07:23:54;8.40;61.40
28763;DHT22;15918;51.270;6.522;2022-11-20T07:26:20;8.40;61.40
28763;DHT22;15918;51.270;6.522;2022-11-20T07:28:45;8.40;61.50
28763;DHT22;15918;51.270;6.522;2022-11-20T07:31:11;8.40;61.40
28763;DHT22;15918;51.270;6.522;2022-11-20T07:33:38;8.40;61.50
28763;DHT22;15918;51.270;6.522;2022-11-20T07:36:04;8.40;61.60
28763;DHT22;15918;51.270;6.522;2022-11-20T07:38:30;8.40;61.50
28763;DHT22;15918;51.270;6.522;2022-11-20T07:40:56;8.40;61.60
28763;DHT22;15918;51.270;6.522;2022-11-20T07:43:23;8.40;61.60
28763;DHT22;15918;51.270;6.522;2022-11-20T07:45:48;8.40;61.70
28763;DHT22;15918;51.270;6.522;2022-11-20T07:48:14;8.40;61.70
28763;DHT22;15918;51.270;6.522;2022-11-20T07:50:39;8.30;61.70
28763;DHT22;15918;51.270;6.522;2022-11-20T07:53:05;8.40;61.80
28763;DHT22;15918;51.270;6.522;2022-11-20T07:55:31;8.40;61.80
28763;DHT22;15918;51.270;6.522;2022-11-20T07:57:57;8.40;61.80
28763;DHT22;15918;51.270;6.522;2022-11-20T08:00:24;8.30;61.80
28763;DHT22;15918;51.270;6.522;2022-11-20T08:02:50;8.40;61.90
28763;DHT22;15918;51.270;6.522;2022-11-20T08:05:15;8.40;62.00
28763;DHT22;15918;51.270;6.522;2022-11-20T08:07:43;8.40;62.00
28763;DHT22;15918;51.270;6.522;2022-11-20T08:10:10;8.40;62.00
28763;DHT22;15918;51.270;6.522;2022-11-20T08:12:36;8.40;62.10
28763;DHT22;15918;51.270;6.522;2022-11-20T08:15:26;8.40;62.10
28763;DHT22;15918;51.270;6.522;2022-11-20T08:17:58;8.30;62.20
28763;DHT22;15918;51.270;6.522;2022-11-20T08:20:23;8.40;62.30
28763;DHT22;15918;51.270;6.522;2022-11-20T08:22:49;8.40;62.30
28763;DHT22;15918;51.270;6.522;2022-11-20T08:25:15;8.40;62.30
28763;DHT22;15918;51.270;6.522;2022-11-20T08:27:40;8.40;62.40
28763;DHT22;15918;51.270;6.522;2022-11-20T08:30:06;8.40;62.40
28763;DHT22;15918;51.270;6.522;2022-11-20T08:32:32;8.40;62.40
28763;DHT22;15918;51.270;6.522;2022-11-20T08:35:00;8.40;62.50
28763;DHT22;15918;51.270;6.522;2022-11-20T08:37:25;8.40;62.50
28763;DHT22;15918;51.270;6.522;2022-11-20T08:39:51;8.40;62.60
28763;DHT22;15918;51.270;6.522;2022-11-20T08:42:18;8.40;62.60
28763;DHT22;15918;51.270;6.522;2022-11-20T08:44:44;8.40;62.70
28763;DHT22;15918;51.270;6.522;2022-11-20T08:47:09;8.40;62.70
28763;DHT22;15918;51.270;6.522;2022-11-20T08:49:35;8.40;62.70
28763;DHT22;15918;51.270;6.522;2022-11-20T08:52:00;8.40;62.70
28763;DHT22;15918;51.270;6.522;2022-11-20T08:54:26;8.40;62.70
28763;DHT22;15918;51.270;6.522;2022-11-20T08:56:51;8.40;62.70
28763;DHT22;15918;51.270;6.522;2022-11-20T08:59:17;8.40;62.80
28763;DHT22;15918;51.270;6.522;2022-11-20T09:01:43;8.40;62.80
28763;DHT22;15918;51.270;6.522;2022-11-20T09:04:08;8.40;62.80
28763;DHT22;15918;51.270;6.522;2022-11-20T09:06:34;8.40;62.80
28763;DHT22;15918;51.270;6.522;2022-11-20T09:08:59;8.40;62.80
28763;DHT22;15918;51.270;6.522;2022-11-20T09:11:25;8.50;62.90
28763;DHT22;15918;51.270;6.522;2022-11-20T09:13:51;8.50;62.90
28763;DHT22;15918;51.270;6.522;2022-11-20T09:16:16;8.40;62.80
28763;DHT22;15918;51.270;6.522;2022-11-20T09:18:42;8.50;62.90
28763;DHT22;15918;51.270;6.522;2022-11-20T09:21:12;8.40;62.80
28763;DHT22;15918;51.270;6.522;2022-11-20T09:23:39;8.50;62.90
28763;DHT22;15918;51.270;6.522;2022-11-20T09:26:07;8.50;63.00
28763;DHT22;15918;51.270;6.522;2022-11-20T09:28:34;8.50;63.00
28763;DHT22;15918;51.270;6.522;2022-11-20T09:31:00;8.50;63.00
28763;DHT22;15918;51.270;6.522;2022-11-20T09:33:26;8.50;63.10
28763;DHT22;15918;51.270;6.522;2022-11-20T09:35:51;8.50;63.20
28763;DHT22;15918;51.270;6.522;2022-11-20T09:38:17;8.50;63.20
28763;DHT22;15918;51.270;6.522;2022-11-20T09:41:02;8.50;63.20
28763;DHT22;15918;51.270;6.522;2022-11-20T09:46:31;8.50;63.50
28763;DHT22;15918;51.270;6.522;2022-11-20T09:49:19;8.60;63.70
28763;DHT22;15918;51.270;6.522;2022-11-20T09:51:57;8.50;63.80
28763;DHT22;15918;51.270;6.522;2022-11-20T09:54:30;8.50;63.80
28763;DHT22;15918;51.270;6.522;2022-11-20T09:57:00;8.50;63.90
28763;DHT22;15918;51.270;6.522;2022-11-20T09:59:43;8.60;64.10
28763;DHT22;15918;51.270;6.522;2022-11-20T10:02:26;8.60;64.20
28763;DHT22;15918;51.270;6.522;2022-11-20T10:05:02;8.60;64.20
28763;DHT22;15918;51.270;6.522;2022-11-20T10:10:04;8.60;64.20
28763;DHT22;15918;51.270;6.522;2022-11-20T10:12:56;8.60;64.80
28763;DHT22;15918;51.270;6.522;2022-11-20T10:29:19;8.60;64.90
28763;DHT22;15918;51.270;6.522;2022-11-20T10:31:54;8.70;64.90
28763;DHT22;15918;51.270;6.522;2022-11-20T10:34:33;8.70;64.80
28763;DHT22;15918;51.270;6.522;2022-11-20T10:37:09;8.70;64.80
28763;DHT22;15918;51.270;6.522;2022-11-20T10:39:42;8.70;65.00
28763;DHT22;15918;51.270;6.522;2022-11-20T10:42:14;8.70;65.00
28763;DHT22;15918;51.270;6.522;2022-11-20T10:44:49;8.70;65.00
28763;DHT22;15918;51.270;6.522;2022-11-20T10:47:28;8.70;64.90
28763;DHT22;15918;51.270;6.522;2022-11-20T10:49:57;8.70;65.00
28763;DHT22;15918;51.270;6.522;2022-11-20T10:55:28;8.80;64.90
28763;DHT22;15918;51.270;6.522;2022-11-20T11:00:39;8.80;65.40
28763;DHT22;15918;51.270;6.522;2022-11-20T11:03:35;8.70;65.40
28763;DHT22;15918;51.270;6.522;2022-11-20T11:06:07;8.80;65.40
28763;DHT22;15918;51.270;6.522;2022-11-20T11:08:38;8.80;65.60
28763;DHT22;15918;51.270;6.522;2022-11-20T11:11:27;8.80;65.70
28763;DHT22;15918;51.270;6.522;2022-11-20T11:14:10;8.80;65.70
28763;DHT22;15918;51.270;6.522;2022-11-20T11:16:49;8.80;65.90
28763;DHT22;15918;51.270;6.522;2022-11-20T11:19:16;8.80;65.90
28763;DHT22;15918;51.270;6.522;2022-11-20T11:21:53;8.80;65.90
28763;DHT22;15918;51.270;6.522;2022-11-20T11:24:25;8.80;65.90
28763;DHT22;15918;51.270;6.522;2022-11-20T11:27:02;8.80;65.90
28763;DHT22;15918;51.270;6.522;2022-11-20T11:29:32;8.80;66.00
28763;DHT22;15918;51.270;6.522;2022-11-20T11:32:12;8.80;66.10
28763;DHT22;15918;51.270;6.522;2022-11-20T11:34:38;8.80;66.00
28763;DHT22;15918;51.270;6.522;2022-11-20T11:37:04;8.80;66.10
28763;DHT22;15918;51.270;6.522;2022-11-20T11:39:35;8.80;66.00
28763;DHT22;15918;51.270;6.522;2022-11-20T11:42:02;8.80;65.90
28763;DHT22;15918;51.270;6.522;2022-11-20T11:44:31;8.80;65.90
28763;DHT22;15918;51.270;6.522;2022-11-20T11:47:29;8.90;66.10
28763;DHT22;15918;51.270;6.522;2022-11-20T11:50:15;8.90;66.00
28763;DHT22;15918;51.270;6.522;2022-11-20T12:00:49;8.90;66.30
28763;DHT22;15918;51.270;6.522;2022-11-20T12:03:22;8.90;66.40
28763;DHT22;15918;51.270;6.522;2022-11-20T12:05:56;8.90;66.40
28763;DHT22;15918;51.270;6.522;2022-11-20T12:08:43;8.90;66.30
28763;DHT22;15918;51.270;6.522;2022-11-20T12:11:15;8.90;66.10
28763;DHT22;15918;51.270;6.522;2022-11-20T12:13:55;8.90;66.20
28763;DHT22;15918;51.270;6.522;2022-11-20T12:16:24;8.90;66.20
28763;DHT22;15918;51.270;6.522;2022-11-20T12:18:51;8.90;66.20
28763;DHT22;15918;51.270;6.522;2022-11-20T12:29:32;9.00;66.50
28763;DHT22;15918;51.270;6.522;2022-11-20T12:37:33;9.00;66.40
28763;DHT22;15918;51.270;6.522;2022-11-20T12:46:51;9.00;66.70
28763;DHT22;15918;51.270;6.522;2022-11-20T12:54:41;9.00;66.70
28763;DHT22;15918;51.270;6.522;2022-11-20T12:57:24;9.00;66.70
28763;DHT22;15918;51.270;6.522;2022-11-20T13:00:07;9.00;66.90
28763;DHT22;15918;51.270;6.522;2022-11-20T13:03:06;9.00;66.90
28763;DHT22;15918;51.270;6.522;2022-11-20T13:05:52;9.00;66.90
28763;DHT22;15918;51.270;6.522;2022-11-20T13:08:28;9.00;67.00
28763;DHT22;15918;51.270;6.522;2022-11-20T13:11:21;9.00;67.10
28763;DHT22;15918;51.270;6.522;2022-11-20T13:17:05;9.00;67.20
28763;DHT22;15918;51.270;6.522;2022-11-20T13:19:35;9.00;67.10
28763;DHT22;15918;51.270;6.522;2022-11-20T13:22:01;9.00;67.40
28763;DHT22;15918;51.270;6.522;2022-11-20T13:24:29;9.00;67.40
28763;DHT22;15918;51.270;6.522;2022-11-20T13:27:18;9.00;67.40
28763;DHT22;15918;51.270;6.522;2022-11-20T13:29:47;9.10;67.20
28763;DHT22;15918;51.270;6.522;2022-11-20T13:32:23;9.10;67.50
28763;DHT22;15918;51.270;6.522;2022-11-20T13:34:57;9.10;67.50
28763;DHT22;15918;51.270;6.522;2022-11-20T13:37:35;9.10;67.50
28763;DHT22;15918;51.270;6.522;2022-11-20T13:42:37;9.10;67.50
28763;DHT22;15918;51.270;6.522;2022-11-20T13:45:10;9.10;67.50
28763;DHT22;15918;51.270;6.522;2022-11-20T13:47:37;9.10;67.40
28763;DHT22;15918;51.270;6.522;2022-11-20T13:50:04;9.10;67.50
28763;DHT22;15918;51.270;6.522;2022-11-20T13:53:02;9.20;67.60
28763;DHT22;15918;51.270;6.522;2022-11-20T13:55:32;9.10;67.50
28763;DHT22;15918;51.270;6.522;2022-11-20T13:58:06;9.10;67.80
28763;DHT22;15918;51.270;6.522;2022-11-20T14:00:33;9.10;67.80
28763;DHT22;15918;51.270;6.522;2022-11-20T14:03:09;9.10;67.80
28763;DHT22;15918;51.270;6.522;2022-11-20T14:05:40;9.10;67.80
28763;DHT22;15918;51.270;6.522;2022-11-20T14:08:16;9.10;68.00
28763;DHT22;15918;51.270;6.522;2022-11-20T14:10:43;9.10;67.90
28763;DHT22;15918;51.270;6.522;2022-11-20T14:13:19;9.00;68.40
28763;DHT22;15918;51.270;6.522;2022-11-20T14:15:45;9.10;68.40
28763;DHT22;15918;51.270;6.522;2022-11-20T14:18:14;9.10;68.40
28763;DHT22;15918;51.270;6.522;2022-11-20T14:20:40;9.10;68.20
28763;DHT22;15918;51.270;6.522;2022-11-20T14:23:09;9.10;68.20
28763;DHT22;15918;51.270;6.522;2022-11-20T14:25:35;9.10;68.30
28763;DHT22;15918;51.270;6.522;2022-11-20T14:28:02;9.10;68.20
28763;DHT22;15918;51.270;6.522;2022-11-20T14:30:46;9.10;68.20
28763;DHT22;15918;51.270;6.522;2022-11-20T14:33:14;9.20;68.00
28763;DHT22;15918;51.270;6.522;2022-11-20T14:35:48;9.20;68.20
28763;DHT22;15918;51.270;6.522;2022-11-20T14:38:17;9.10;68.20
28763;DHT22;15918;51.270;6.522;2022-11-20T14:40:43;9.10;68.10
28763;DHT22;15918;51.270;6.522;2022-11-20T14:45:45;9.20;68.40
28763;DHT22;15918;51.270;6.522;2022-11-20T14:48:13;9.20;68.60
28763;DHT22;15918;51.270;6.522;2022-11-20T14:50:39;9.20;68.60
28763;DHT22;15918;51.270;6.522;2022-11-20T14:53:05;9.10;68.50
28763;DHT22;15918;51.270;6.522;2022-11-20T14:55:36;9.10;68.50
28763;DHT22;15918;51.270;6.522;2022-11-20T14:58:20;9.10;68.50
28763;DHT22;15918;51.270;6.522;2022-11-20T15:00:55;9.10;68.40
28763;DHT22;15918;51.270;6.522;2022-11-20T15:03:21;9.20;68.50
28763;DHT22;15918;51.270;6.522;2022-11-20T15:05:49;9.10;68.50
28763;DHT22;15918;51.270;6.522;2022-11-20T15:08:16;9.20;68.40
28763;DHT22;15918;51.270;6.522;2022-11-20T15:10:46;9.20;68.40
28763;DHT22;15918;51.270;6.522;2022-11-20T15:13:20;9.20;68.20
28763;DHT22;15918;51.270;6.522;2022-11-20T15:15:50;9.20;68.40
28763;DHT22;15918;51.270;6.522;2022-11-20T15:18:22;9.20;68.40
28763;DHT22;15918;51.270;6.522;2022-11-20T15:20:49;9.20;68.40
28763;DHT22;15918;51.270;6.522;2022-11-20T15:23:17;9.20;68.40
28763;DHT22;15918;51.270;6.522;2022-11-20T15:25:47;9.20;68.40
28763;DHT22;15918;51.270;6.522;2022-11-20T15:30:44;9.20;68.60
28763;DHT22;15918;51.270;6.522;2022-11-20T15:33:10;9.20;68.60
28763;DHT22;15918;51.270;6.522;2022-11-20T15:35:35;9.20;68.70
28763;DHT22;15918;51.270;6.522;2022-11-20T15:38:01;9.20;68.70
28763;DHT22;15918;51.270;6.522;2022-11-20T15:40:27;9.20;68.80
28763;DHT22;15918;51.270;6.522;2022-11-20T15:42:52;9.20;68.80
28763;DHT22;15918;51.270;6.522;2022-11-20T15:48:59;9.20;68.90
28763;DHT22;15918;51.270;6.522;2022-11-20T15:53:37;9.20;69.20
28763;DHT22;15918;51.270;6.522;2022-11-20T15:56:03;9.20;69.30
28763;DHT22;15918;51.270;6.522;2022-11-20T15:58:29;9.20;69.30
28763;DHT22;15918;51.270;6.522;2022-11-20T16:00:55;9.30;69.40
28763;DHT22;15918;51.270;6.522;2022-11-20T16:03:21;9.20;69.50
28763;DHT22;15918;51.270;6.522;2022-11-20T16:05:46;9.30;69.60
28763;DHT22;15918;51.270;6.522;2022-11-20T16:08:12;9.30;69.90
28763;DHT22;15918;51.270;6.522;2022-11-20T16:10:38;9.20;70.20
28763;DHT22;15918;51.270;6.522;2022-11-20T16:13:05;9.20;70.20
28763;DHT22;15918;51.270;6.522;2022-11-20T16:15:56;9.20;70.50
28763;DHT22;15918;51.270;6.522;2022-11-20T16:18:22;9.20;70.70
28763;DHT22;15918;51.270;6.522;2022-11-20T16:20:49;9.20;70.80
28763;DHT22;15918;51.270;6.522;2022-11-20T16:23:15;9.20;70.80
28763;DHT22;15918;51.270;6.522;2022-11-20T16:25:42;9.20;71.00
28763;DHT22;15918;51.270;6.522;2022-11-20T16:28:07;9.20;71.10
28763;DHT22;15918;51.270;6.522;2022-11-20T16:30:33;9.20;71.20
28763;DHT22;15918;51.270;6.522;2022-11-20T16:33:00;9.20;71.20
28763;DHT22;15918;51.270;6.522;2022-11-20T16:35:27;9.20;71.40
28763;DHT22;15918;51.270;6.522;2022-11-20T16:37:53;9.20;71.30
28763;DHT22;15918;51.270;6.522;2022-11-20T16:40:19;9.20;71.20
28763;DHT22;15918;51.270;6.522;2022-11-20T16:42:44;9.20;71.40
28763;DHT22;15918;51.270;6.522;2022-11-20T16:45:10;9.20;71.60
28763;DHT22;15918;51.270;6.522;2022-11-20T16:47:36;9.20;71.80
28763;DHT22;15918;51.270;6.522;2022-11-20T16:50:03;9.20;71.70
28763;DHT22;15918;51.270;6.522;2022-11-20T16:52:30;9.20;71.70
28763;DHT22;15918;51.270;6.522;2022-11-20T16:54:56;9.20;71.70
28763;DHT22;15918;51.270;6.522;2022-11-20T16:57:22;9.20;72.00
28763;DHT22;15918;51.270;6.522;2022-11-20T16:59:48;9.20;72.30
28763;DHT22;15918;51.270;6.522;2022-11-20T17:02:14;9.20;72.50
28763;DHT22;15918;51.270;6.522;2022-11-20T17:04:40;9.20;72.60
28763;DHT22;15918;51.270;6.522;2022-11-20T17:07:06;9.20;72.80
28763;DHT22;15918;51.270;6.522;2022-11-20T17:09:32;9.20;72.90
28763;DHT22;15918;51.270;6.522;2022-11-20T17:11:58;9.20;72.80
28763;DHT22;15918;51.270;6.522;2022-11-20T17:14:23;9.20;72.80
28763;DHT22;15918;51.270;6.522;2022-11-20T17:16:49;9.20;73.10
28763;DHT22;15918;51.270;6.522;2022-11-20T17:19:14;9.20;73.10